Time;durP1;ratioP1;P1;durP2;ratioP2;P2;SDS_P1;SDS_P2;PMS_P1;PMS_P2;Temp;Humidity;BMP_temperature;BMP_pressure;BME280_temperature;BME280_humidity;BME280_pressure;Samples;Min_cycle;Max_cycle;Signal;HPM_P1;HPM_P2
2022/06/24 00:00:35;;;;;;;9.60;3.30;;;19.90;99.90;;;;;;5028329;28;20432;-74
2022/06/24 00:03:02;;;;;;;18.33;3.40;;;19.70;99.90;;;;;;5021298;28;20484;-74
2022/06/24 00:05:29;;;;;;;9.07;2.83;;;19.60;99.90;;;;;;5029639;28;20770;-74
2022/06/24 00:07:56;;;;;;;6.47;3.03;;;19.40;99.90;;;;;;5030052;28;20575;-74
2022/06/24 00:10:25;;;;;;;9.87;3.10;;;19.40;99.90;;;;;;5031108;28;20740;-74
2022/06/24 00:12:52;;;;;;;7.87;3.70;;;19.50;99.90;;;;;;5029468;28;20523;-74
2022/06/24 00:15:32;;;;;;;7.07;3.63;;;19.50;99.90;;;;;;5019167;28;20437;-74
2022/06/24 00:18:14;;;;;;;7.10;3.43;;;19.50;99.90;;;;;;5026406;28;20476;-74
2022/06/24 00:20:44;;;;;;;8.83;4.30;;;19.50;99.90;;;;;;5029674;28;20456;-74
2022/06/24 00:23:11;;;;;;;8.43;3.43;;;19.50;99.90;;;;;;5029349;28;20949;-74
2022/06/24 00:25:38;;;;;;;8.97;4.67;;;19.40;99.90;;;;;;5021363;28;20433;-75
2022/06/24 00:28:07;;;;;;;9.70;4.20;;;19.40;99.90;;;;;;5025021;28;20434;-74
2022/06/24 00:30:36;;;;;;;10.33;4.20;;;19.40;99.90;;;;;;5027873;28;20432;-75
2022/06/24 00:33:11;;;;;;;10.03;5.00;;;19.40;99.90;;;;;;5018890;28;20436;-74
2022/06/24 00:35:45;;;;;;;17.50;5.10;;;19.50;99.90;;;;;;5028156;28;20435;-74
2022/06/24 00:38:34;;;;;;;10.30;4.97;;;19.50;99.90;;;;;;5026240;28;20470;-75
2022/06/24 00:41:04;;;;;;;8.77;4.50;;;19.50;99.90;;;;;;5020856;28;20524;-75
2022/06/24 00:43:55;;;;;;;8.60;4.17;;;19.60;99.90;;;;;;5025329;28;20493;-74
2022/06/24 00:46:26;;;;;;;10.13;4.60;;;19.50;99.90;;;;;;5020481;28;20507;-74
2022/06/24 00:48:56;;;;;;;9.93;4.87;;;19.50;99.90;;;;;;5027047;28;20836;-74
2022/06/24 00:51:30;;;;;;;7.53;4.30;;;19.50;99.90;;;;;;5021703;28;20597;-75
2022/06/24 00:53:56;;;;;;;6.60;4.20;;;19.50;99.90;;;;;;5027995;28;20436;-74
2022/06/24 00:56:25;;;;;;;8.23;4.33;;;19.50;99.90;;;;;;5024550;28;20471;-74
2022/06/24 00:58:54;;;;;;;10.30;5.20;;;19.50;99.90;;;;;;5025967;28;20432;-74
2022/06/24 01:01:30;;;;;;;6.43;4.10;;;19.40;99.90;;;;;;5028640;28;20432;-74
2022/06/24 01:03:57;;;;;;;6.30;3.67;;;19.40;99.90;;;;;;5030331;28;20400;-74
2022/06/24 01:06:24;;;;;;;10.37;4.87;;;19.40;99.90;;;;;;5026448;28;20431;-74
2022/06/24 01:11:35;;;;;;;6.90;3.70;;;19.30;99.90;;;;;;5030108;22;20492;-71
2022/06/24 01:14:01;;;;;;;10.07;3.33;;;19.20;99.90;;;;;;5027814;28;21090;-71
2022/06/24 01:16:27;;;;;;;6.47;3.60;;;19.10;99.90;;;;;;5024267;28;20447;-72
2022/06/24 01:18:59;;;;;;;6.73;3.60;;;19.10;99.90;;;;;;5035753;28;20600;-72
2022/06/24 01:24:18;;;;;;;7.50;4.13;;;19.10;99.90;;;;;;5127459;22;20867;-74
2022/06/24 01:26:49;;;;;;;15.07;3.70;;;19.10;99.90;;;;;;5026229;28;20429;-74
2022/06/24 01:29:15;;;;;;;11.97;3.50;;;19.10;99.90;;;;;;5071475;22;20884;-74
2022/06/24 01:34:17;;;;;;;5.87;3.20;;;19.20;99.90;;;;;;5051539;22;20976;-74
2022/06/24 01:36:43;;;;;;;7.33;3.90;;;19.20;99.90;;;;;;5028625;28;20476;-74
2022/06/24 01:39:09;;;;;;;10.17;4.10;;;19.20;99.90;;;;;;5027028;28;20519;-74
2022/06/24 01:41:35;;;;;;;6.67;3.20;;;19.20;99.90;;;;;;5006154;28;20595;-74
2022/06/24 01:44:01;;;;;;;6.50;3.70;;;19.20;99.90;;;;;;5009108;28;20710;-74
2022/06/24 01:46:27;;;;;;;7.10;3.63;;;19.50;99.90;;;;;;4989896;28;20487;-74
2022/06/24 01:51:31;;;;;;;6.20;3.13;;;19.30;99.90;;;;;;5422693;22;20454;-73
2022/06/24 01:53:57;;;;;;;5.27;3.50;;;19.30;99.90;;;;;;5040007;23;20500;-74
2022/06/24 01:56:22;;;;;;;8.10;3.37;;;19.30;99.90;;;;;;5029112;28;20456;-74
2022/06/24 01:58:49;;;;;;;4.63;3.20;;;19.00;99.90;;;;;;5086643;22;20268;-71
2022/06/24 02:01:14;;;;;;;7.00;3.87;;;19.10;99.90;;;;;;5173316;22;1064012;-73
2022/06/24 02:03:40;;;;;;;7.40;3.33;;;19.00;99.90;;;;;;5040381;28;20559;-74
2022/06/24 02:06:09;;;;;;;6.87;3.50;;;19.00;99.90;;;;;;5011031;28;20178;-74
2022/06/24 02:08:35;;;;;;;9.20;4.07;;;18.90;99.90;;;;;;5010887;28;20455;-72
2022/06/24 02:13:46;;;;;;;7.57;3.30;;;19.00;99.90;;;;;;5130014;22;20681;-74
2022/06/24 02:16:13;;;;;;;6.13;3.70;;;18.90;99.90;;;;;;5004621;28;20429;-74
2022/06/24 02:18:39;;;;;;;9.40;3.53;;;18.90;99.90;;;;;;5027967;28;20440;-73
2022/06/24 02:21:05;;;;;;;6.40;3.43;;;18.90;99.90;;;;;;5010244;28;20437;-75
2022/06/24 02:23:31;;;;;;;6.10;3.40;;;18.90;99.90;;;;;;4998294;28;20360;-74
2022/06/24 02:25:57;;;;;;;8.30;3.73;;;18.90;99.90;;;;;;5011119;28;20553;-74
2022/06/24 02:28:23;;;;;;;5.03;3.10;;;18.90;99.90;;;;;;5011393;28;20169;-74
2022/06/24 02:30:52;;;;;;;7.73;3.30;;;18.90;99.90;;;;;;5020221;28;20452;-75
2022/06/24 02:33:18;;;;;;;7.60;2.90;;;18.90;99.90;;;;;;5000376;28;20174;-75
2022/06/24 02:35:44;;;;;;;8.10;3.10;;;18.80;99.90;;;;;;4999547;28;20433;-74
2022/06/24 02:38:10;;;;;;;6.10;3.07;;;18.90;99.90;;;;;;5021344;28;20202;-74
2022/06/24 02:40:47;;;;;;;8.43;3.00;;;18.90;99.90;;;;;;4996340;28;20198;-74
2022/06/24 02:45:53;;;;;;;4.75;3.00;;;19.00;99.90;;;;;;5186965;22;20500;-71
2022/06/24 02:48:20;;;;;;;8.10;3.37;;;19.00;99.90;;;;;;5131346;22;20508;-75
2022/06/24 02:50:48;;;;;;;6.03;3.47;;;18.90;99.90;;;;;;4990537;28;20448;-76
2022/06/24 02:55:44;;;;;;;7.13;4.07;;;18.90;99.90;;;;;;5038423;22;20513;-75
2022/06/24 03:03:19;;;;;;;5.47;3.80;;;18.80;99.90;;;;;;5076902;22;20484;-75
2022/06/24 03:05:46;;;;;;;7.47;4.03;;;18.90;99.90;;;;;;5244647;22;22556;-71
2022/06/24 03:08:13;;;;;;;5.30;3.63;;;18.90;99.90;;;;;;5199362;22;20539;-75
2022/06/24 03:10:39;;;;;;;7.23;3.60;;;18.90;99.90;;;;;;4988958;28;20437;-75
2022/06/24 03:13:08;;;;;;;4.87;3.30;;;18.70;99.90;;;;;;5136869;22;20516;-74
2022/06/24 03:15:34;;;;;;;6.70;3.43;;;18.70;99.90;;;;;;5182763;22;20218;-72
2022/06/24 03:18:00;;;;;;;5.80;3.07;;;18.70;99.90;;;;;;5212855;22;20643;-76
2022/06/24 03:20:27;;;;;;;6.70;3.00;;;18.70;99.90;;;;;;5375500;22;20329;-71
2022/06/24 03:22:53;;;;;;;5.77;3.43;;;18.50;99.90;;;;;;5291269;22;21910;-75
2022/06/24 03:25:18;;;;;;;5.30;2.77;;;18.70;99.90;;;;;;5004555;28;20985;-75
2022/06/24 03:27:44;;;;;;;6.43;3.10;;;18.70;99.90;;;;;;5011302;28;20178;-76
2022/06/24 03:30:12;;;;;;;6.17;3.10;;;18.70;99.90;;;;;;5015138;28;20344;-76
2022/06/24 03:32:38;;;;;;;5.10;3.50;;;18.60;99.90;;;;;;4997014;28;20261;-74
2022/06/24 03:35:04;;;;;;;7.00;2.87;;;18.50;99.90;;;;;;5016067;28;20404;-73
2022/06/24 03:37:30;;;;;;;7.87;3.13;;;18.50;99.90;;;;;;5007422;28;20458;-74
2022/06/24 03:39:56;;;;;;;6.40;3.57;;;18.50;99.90;;;;;;5007215;28;20441;-73
2022/06/24 03:42:21;;;;;;;6.87;3.03;;;18.50;99.90;;;;;;5007805;28;20266;-73
2022/06/24 03:44:47;;;;;;;7.83;3.60;;;18.50;99.90;;;;;;5002770;28;20478;-73
2022/06/24 03:47:13;;;;;;;5.00;2.90;;;18.50;99.90;;;;;;5013752;28;20182;-74
2022/06/24 03:49:38;;;;;;;4.83;2.80;;;18.50;99.90;;;;;;5015697;28;20607;-73
2022/06/24 03:52:05;;;;;;;3.77;2.80;;;18.60;99.90;;;;;;5013667;28;20257;-74
2022/06/24 03:54:30;;;;;;;8.73;3.37;;;18.50;99.90;;;;;;5004725;28;20196;-74
2022/06/24 03:56:56;;;;;;;8.33;3.53;;;18.60;99.90;;;;;;5021856;28;20453;-74
2022/06/24 04:04:19;;;;;;;7.50;3.23;;;18.60;99.90;;;;;;5037838;22;20497;-76
2022/06/24 04:06:45;;;;;;;7.73;3.30;;;18.50;99.90;;;;;;5006715;28;20444;-75
2022/06/24 04:09:11;;;;;;;10.50;3.53;;;18.50;99.90;;;;;;5065611;22;20983;-76
2022/06/24 04:11:36;;;;;;;7.80;3.40;;;18.50;99.90;;;;;;5040726;22;20249;-76
2022/06/24 04:14:02;;;;;;;7.77;3.33;;;18.60;99.90;;;;;;5341173;22;20224;-77
2022/06/24 04:16:28;;;;;;;5.30;2.43;;;18.60;99.90;;;;;;5270379;22;20239;-76
2022/06/24 04:18:54;;;;;;;7.67;3.53;;;18.60;99.90;;;;;;5134991;22;20252;-74
2022/06/24 04:21:20;;;;;;;4.80;2.70;;;18.60;99.90;;;;;;5005865;28;20277;-73
2022/06/24 04:23:49;;;;;;;5.13;2.90;;;18.60;99.90;;;;;;5006036;28;20179;-74
2022/06/24 04:26:15;;;;;;;16.30;3.17;;;18.60;99.90;;;;;;4985790;28;20183;-72
2022/06/24 04:31:23;;;;;;;4.77;2.90;;;18.60;99.90;;;;;;5080078;22;20500;-76
2022/06/24 04:33:52;;;;;;;8.47;3.30;;;18.60;99.90;;;;;;5094555;22;20562;-76
2022/06/24 04:36:17;;;;;;;7.80;3.50;;;18.00;99.90;;;;;;5020860;23;20229;-76
2022/06/24 04:38:44;;;;;;;5.40;3.53;;;18.60;99.90;;;;;;5075201;22;20505;-75
2022/06/24 04:41:16;;;;;;;9.13;3.60;;;18.70;99.90;;;;;;4986038;28;20187;-75
2022/06/24 04:46:25;;;;;;;7.03;3.23;;;18.60;99.90;;;;;;5026621;22;20571;-76
2022/06/24 04:48:50;;;;;;;5.40;3.27;;;18.60;99.90;;;;;;4993898;28;20438;-77
2022/06/24 04:51:16;;;;;;;9.20;3.30;;;18.70;99.90;;;;;;4991645;28;20445;-76
2022/06/24 04:53:41;;;;;;;6.50;3.20;;;18.80;99.90;;;;;;5015323;28;20192;-75
2022/06/24 04:56:07;;;;;;;9.13;4.13;;;18.80;99.90;;;;;;5012360;28;20557;-76
2022/06/24 04:58:32;;;;;;;7.70;3.50;;;18.80;99.90;;;;;;5013377;28;20205;-76
2022/06/24 05:00:58;;;;;;;5.90;3.70;;;18.90;99.90;;;;;;5019217;28;20204;-76
2022/06/24 05:03:24;;;;;;;6.73;3.17;;;19.00;99.90;;;;;;5045997;22;20652;-75
2022/06/24 05:05:49;;;;;;;4.97;2.80;;;19.10;99.90;;;;;;5146613;22;20493;-76
2022/06/24 05:08:15;;;;;;;10.03;4.03;;;19.20;99.90;;;;;;5074963;23;20226;-78
2022/06/24 05:10:41;;;;;;;9.13;3.20;;;19.20;99.90;;;;;;5006559;28;20194;-75
2022/06/24 05:13:08;;;;;;;6.67;3.43;;;19.40;99.90;;;;;;5008736;28;20189;-75
2022/06/24 05:15:33;;;;;;;9.60;3.80;;;19.40;99.90;;;;;;5247973;22;20489;-75
2022/06/24 05:17:59;;;;;;;12.13;3.43;;;19.50;99.90;;;;;;5043867;22;20544;-75
2022/06/24 05:20:24;;;;;;;7.43;3.57;;;19.50;99.90;;;;;;5121614;22;20226;-75
2022/06/24 05:22:50;;;;;;;7.43;3.40;;;19.90;99.90;;;;;;5129065;22;20205;-76
2022/06/24 05:25:23;;;;;;;10.73;4.10;;;20.00;99.90;;;;;;5037618;23;20229;-76
2022/06/24 05:27:49;;;;;;;6.23;3.30;;;20.00;99.90;;;;;;5269906;22;20259;-74
2022/06/24 05:30:15;;;;;;;7.10;3.17;;;20.20;99.90;;;;;;4990998;28;20536;-73
2022/06/24 05:32:40;;;;;;;7.30;3.60;;;20.30;99.90;;;;;;4995385;28;20610;-75
2022/06/24 05:35:06;;;;;;;10.60;3.87;;;20.50;99.90;;;;;;5000852;28;20182;-74
2022/06/24 05:37:33;;;;;;;7.70;3.50;;;20.60;99.90;;;;;;5013426;28;20202;-73
2022/06/24 05:39:59;;;;;;;6.43;3.60;;;20.60;99.90;;;;;;5148604;22;20670;-75
2022/06/24 05:42:24;;;;;;;11.70;3.73;;;20.70;99.90;;;;;;5232990;22;20497;-75
2022/06/24 05:44:50;;;;;;;11.70;4.87;;;20.80;99.90;;;;;;5009375;28;20193;-75
2022/06/24 05:47:15;;;;;;;12.03;5.37;;;20.90;99.90;;;;;;5009362;28;20177;-74
2022/06/24 05:49:41;;;;;;;8.57;4.70;;;21.00;99.90;;;;;;5009388;28;20198;-75
2022/06/24 05:52:07;;;;;;;9.90;4.60;;;20.80;99.90;;;;;;5012011;28;20190;-76
2022/06/24 05:57:16;;;;;;;10.03;5.10;;;20.90;99.90;;;;;;5011836;28;20203;-76
2022/06/24 05:59:42;;;;;;;9.37;5.40;;;20.90;99.90;;;;;;5020719;22;20580;-76
2022/06/24 06:02:08;;;;;;;9.33;5.70;;;21.00;99.90;;;;;;4986861;28;20623;-75
2022/06/24 06:04:34;;;;;;;10.60;6.00;;;21.00;99.90;;;;;;4988993;28;20187;-75
2022/06/24 06:06:59;;;;;;;13.00;6.63;;;21.00;99.90;;;;;;4978722;28;20672;-74
2022/06/24 06:09:25;;;;;;;14.90;7.00;;;21.10;99.90;;;;;;4987715;28;20434;-75
2022/06/24 06:11:50;;;;;;;9.63;6.93;;;21.20;99.90;;;;;;4987422;28;20179;-76
2022/06/24 06:14:16;;;;;;;10.63;6.13;;;21.30;99.90;;;;;;4972089;28;20182;-75
2022/06/24 06:16:41;;;;;;;12.00;6.37;;;21.40;99.90;;;;;;4993056;28;20570;-75
2022/06/24 06:19:07;;;;;;;12.10;6.70;;;21.60;99.90;;;;;;4988775;28;20167;-75
2022/06/24 06:21:32;;;;;;;11.97;6.47;;;21.70;99.90;;;;;;4978259;28;20329;-75
2022/06/24 06:23:58;;;;;;;8.70;6.17;;;21.80;99.90;;;;;;4996110;28;20536;-75
2022/06/24 06:26:23;;;;;;;13.23;6.43;;;21.90;99.90;;;;;;4991995;28;20214;-75
2022/06/24 06:28:49;;;;;;;10.33;5.73;;;21.80;99.90;;;;;;4997413;28;20189;-75
2022/06/24 06:31:14;;;;;;;10.80;6.03;;;21.60;99.90;;;;;;4995188;28;20204;-75
2022/06/24 06:33:40;;;;;;;10.90;5.77;;;21.50;99.90;;;;;;4992237;28;20842;-75
2022/06/24 06:36:08;;;;;;;13.03;5.80;;;21.40;99.90;;;;;;4978976;28;20209;-75
2022/06/24 06:38:35;;;;;;;12.37;5.30;;;21.40;99.90;;;;;;4999618;28;20657;-75
2022/06/24 06:41:00;;;;;;;8.07;4.93;;;21.30;99.90;;;;;;4999335;28;20475;-75
2022/06/24 06:43:27;;;;;;;8.57;5.00;;;21.40;99.90;;;;;;4998972;28;20516;-75
2022/06/24 06:45:53;;;;;;;7.40;4.83;;;21.40;99.90;;;;;;4991596;28;20179;-75
2022/06/24 06:48:20;;;;;;;15.30;5.20;;;21.40;99.90;;;;;;4972840;28;20434;-75
2022/06/24 06:50:45;;;;;;;12.80;4.70;;;21.60;99.90;;;;;;4994679;28;20540;-75
2022/06/24 06:53:11;;;;;;;10.10;4.90;;;21.80;95.60;;;;;;4993719;28;21006;-75
2022/06/24 06:55:36;;;;;;;8.10;4.27;;;22.00;97.50;;;;;;4969654;28;20270;-75
2022/06/24 06:58:02;;;;;;;6.87;4.80;;;22.20;96.40;;;;;;4988457;28;20221;-75
2022/06/24 07:00:28;;;;;;;9.67;4.37;;;22.50;94.10;;;;;;4996092;28;20694;-75
2022/06/24 07:02:54;;;;;;;9.27;3.77;;;22.50;92.50;;;;;;4993826;28;20233;-75
2022/06/24 07:05:19;;;;;;;10.57;4.17;;;22.60;75.60;;;;;;4987592;28;20278;-75
2022/06/24 07:07:45;;;;;;;7.47;3.87;;;22.50;92.10;;;;;;4991460;28;20288;-75
2022/06/24 07:10:10;;;;;;;8.00;3.70;;;22.60;71.40;;;;;;4991045;28;20768;-75
2022/06/24 07:12:36;;;;;;;9.93;4.30;;;22.70;69.60;;;;;;4976482;28;20247;-75
2022/06/24 07:15:02;;;;;;;6.60;4.10;;;22.70;58.80;;;;;;5001301;28;20620;-75
2022/06/24 07:17:27;;;;;;;7.50;3.57;;;22.80;61.10;;;;;;4992395;28;20211;-77
2022/06/24 07:19:53;;;;;;;6.70;3.87;;;23.20;66.50;;;;;;4986966;28;20213;-77
2022/06/24 07:22:19;;;;;;;8.73;3.70;;;23.10;53.90;;;;;;4992377;28;20647;-76
2022/06/24 07:24:44;;;;;;;6.23;4.00;;;23.30;57.70;;;;;;4988323;28;20441;-77
2022/06/24 07:27:11;;;;;;;8.27;3.90;;;23.50;49.40;;;;;;4999565;28;20174;-77
2022/06/24 07:29:37;;;;;;;8.23;3.43;;;23.80;49.60;;;;;;4989703;28;20290;-77
2022/06/24 07:32:05;;;;;;;7.20;3.33;;;24.10;50.00;;;;;;4996283;28;20455;-77
2022/06/24 07:34:31;;;;;;;7.63;3.77;;;24.50;32.30;;;;;;4993880;28;20190;-77
2022/06/24 07:37:01;;;;;;;6.03;3.47;;;24.60;25.70;;;;;;4985840;28;20948;-77
2022/06/24 07:39:28;;;;;;;16.87;3.70;;;24.70;25.20;;;;;;4995877;28;20988;-77
2022/06/24 07:41:54;;;;;;;7.03;3.10;;;25.00;20.90;;;;;;4985662;28;21792;-77
2022/06/24 07:44:23;;;;;;;8.53;4.53;;;25.10;13.90;;;;;;4976638;28;20579;-77
2022/06/24 07:46:50;;;;;;;5.10;3.37;;;25.10;16.60;;;;;;4970117;28;20552;-75
2022/06/24 07:49:16;;;;;;;8.20;3.93;;;25.40;12.40;;;;;;4978290;28;20968;-77
2022/06/24 07:51:42;;;;;;;5.23;3.10;;;25.70;7.80;;;;;;4987956;28;20409;-77
2022/06/24 07:54:08;;;;;;;5.70;3.27;;;25.80;3.10;;;;;;4987527;28;20523;-77
2022/06/24 07:59:23;;;;;;;6.60;3.13;;;25.90;1.00;;;;;;4978061;28;20293;-77
2022/06/24 08:01:49;;;;;;;6.00;3.50;;;26.00;1.00;;;;;;4987459;28;20521;-77
2022/06/24 08:04:14;;;;;;;5.73;3.27;;;25.80;1.00;;;;;;4988046;28;20485;-76
2022/06/24 08:06:46;;;;;;;6.07;3.43;;;26.20;1.00;;;;;;4989506;28;20262;-77
2022/06/24 08:09:15;;;;;;;7.40;3.90;;;25.70;1.00;;;;;;4989075;28;20183;-75
2022/06/24 08:11:41;;;;;;;6.60;3.30;;;25.40;1.00;;;;;;4994811;28;20421;-75
2022/06/24 08:14:07;;;;;;;7.60;3.57;;;25.20;1.50;;;;;;4996548;28;20469;-75
2022/06/24 08:16:32;;;;;;;8.83;3.70;;;25.40;1.30;;;;;;4990097;28;20438;-75
2022/06/24 08:18:58;;;;;;;5.00;3.10;;;25.20;4.50;;;;;;4988544;28;20624;-74
2022/06/24 08:21:23;;;;;;;5.50;3.43;;;25.20;1.00;;;;;;4989118;28;20207;-71
2022/06/24 08:23:49;;;;;;;7.70;3.77;;;25.20;1.80;;;;;;4990693;28;20183;-71
2022/06/24 08:26:16;;;;;;;7.00;3.40;;;25.60;1.00;;;;;;5000694;28;20213;-71
2022/06/24 08:28:42;;;;;;;11.10;3.20;;;26.00;1.00;;;;;;4957734;28;20453;-71
2022/06/24 08:31:08;;;;;;;6.23;3.10;;;26.10;1.00;;;;;;4991111;28;20441;-70
2022/06/24 08:33:34;;;;;;;7.13;3.50;;;26.20;1.00;;;;;;5005577;28;20443;-71
2022/06/24 08:36:00;;;;;;;6.40;3.20;;;26.40;1.00;;;;;;4988397;28;20236;-71
2022/06/24 08:38:26;;;;;;;7.53;3.13;;;26.50;1.00;;;;;;4973691;28;20203;-71
2022/06/24 08:40:53;;;;;;;4.90;3.17;;;26.40;1.00;;;;;;4990402;28;20456;-74
2022/06/24 08:43:22;;;;;;;3.60;3.00;;;26.00;1.00;;;;;;4973180;28;20205;-71
2022/06/24 08:45:49;;;;;;;4.73;3.17;;;25.90;1.00;;;;;;4992114;28;20409;-70
2022/06/24 08:48:15;;;;;;;4.23;3.17;;;25.70;1.00;;;;;;4974259;28;20436;-70
2022/06/24 08:50:41;;;;;;;6.97;3.57;;;25.40;1.00;;;;;;4991930;28;20525;-69
2022/06/24 08:53:09;;;;;;;5.40;3.23;;;25.20;1.00;;;;;;4981103;28;20524;-70
2022/06/24 08:55:37;;;;;;;7.97;3.53;;;25.70;1.00;;;;;;5003944;28;20487;-70
2022/06/24 08:58:10;;;;;;;5.20;3.57;;;26.00;1.00;;;;;;4972467;28;21047;-70
2022/06/24 09:00:36;;;;;;;4.40;3.30;;;27.00;1.00;;;;;;4989812;28;20465;-70
2022/06/24 09:03:03;;;;;;;3.90;3.13;;;27.70;1.00;;;;;;4991039;28;20433;-70
2022/06/24 09:05:29;;;;;;;5.80;3.20;;;27.70;1.00;;;;;;4991108;28;20453;-71
2022/06/24 09:08:10;;;;;;;6.60;3.20;;;28.10;1.00;;;;;;4976008;28;20613;-70
2022/06/24 09:10:37;;;;;;;6.73;3.40;;;28.40;1.00;;;;;;4995040;28;20202;-71
2022/06/24 09:13:04;;;;;;;4.40;3.10;;;28.30;1.00;;;;;;4991493;28;20425;-72
2022/06/24 09:15:29;;;;;;;3.87;2.80;;;29.20;1.00;;;;;;5001753;28;20535;-70
2022/06/24 09:17:56;;;;;;;4.80;3.00;;;29.90;1.00;;;;;;4991236;28;20237;-73
2022/06/24 09:20:27;;;;;;;4.57;3.10;;;30.80;1.00;;;;;;4973263;28;20297;-72
2022/06/24 09:23:10;;;;;;;5.17;3.30;;;30.80;1.00;;;;;;4971042;28;20558;-70
2022/06/24 09:25:46;;;;;;;4.43;3.05;;;30.50;1.00;;;;;;4989655;28;20244;-70
2022/06/24 09:28:21;;;;;;;5.45;3.00;;;29.80;1.00;;;;;;4993416;28;20417;-70
2022/06/24 09:30:47;;;;;;;6.73;3.47;;;28.90;1.00;;;;;;5003638;28;20210;-70
2022/06/24 09:33:18;;;;;;;6.93;3.00;;;29.10;1.00;;;;;;4999819;28;20721;-70
2022/06/24 09:35:44;;;;;;;4.50;2.95;;;31.00;1.00;;;;;;4991841;28;20925;-70
2022/06/24 09:38:11;;;;;;;6.10;2.88;;;31.90;1.00;;;;;;4990568;28;20210;-72
2022/06/24 09:40:38;;;;;;;5.57;2.67;;;31.70;1.00;;;;;;4991467;28;20252;-73
2022/06/24 09:43:06;;;;;;;5.95;3.10;;;32.90;1.00;;;;;;4967946;28;20179;-71
2022/06/24 09:45:53;;;;;;;5.47;3.08;;;33.00;1.00;;;;;;4970637;28;20188;-72
2022/06/24 09:48:30;;;;;;;4.07;2.80;;;33.60;1.00;;;;;;4981590;28;20232;-74
2022/06/24 09:50:58;;;;;;;3.35;2.40;;;34.30;1.00;;;;;;4990020;28;20715;-74
2022/06/24 09:53:27;;;;;;;3.42;2.53;;;34.50;1.00;;;;;;4990988;28;20182;-71
2022/06/24 09:55:54;;;;;;;4.07;2.70;;;34.50;1.00;;;;;;4990583;28;20298;-73
2022/06/24 09:58:21;;;;;;;6.13;3.05;;;33.80;1.00;;;;;;4989837;28;20206;-71
2022/06/24 10:00:48;;;;;;;3.50;2.63;;;33.30;1.00;;;;;;4974012;28;20226;-71
2022/06/24 10:03:14;;;;;;;8.65;2.80;;;32.60;1.00;;;;;;4974598;28;20174;-73
2022/06/24 10:05:43;;;;;;;5.00;3.03;;;31.70;1.00;;;;;;4987748;28;20498;-71
2022/06/24 10:08:12;;;;;;;4.55;2.90;;;32.30;1.00;;;;;;4992037;28;20584;-72
2022/06/24 10:10:43;;;;;;;5.78;2.95;;;33.60;1.00;;;;;;4977839;28;20249;-73
2022/06/24 10:13:13;;;;;;;3.60;2.53;;;34.70;1.00;;;;;;4970488;28;20175;-73
2022/06/24 10:15:39;;;;;;;3.50;2.78;;;35.70;1.00;;;;;;4972612;28;20237;-71
2022/06/24 10:18:09;;;;;;;4.95;2.58;;;36.30;1.00;;;;;;4990333;28;20640;-73
2022/06/24 10:20:36;;;;;;;3.53;2.55;;;36.90;1.00;;;;;;4991012;28;20590;-73
2022/06/24 10:23:01;;;;;;;5.00;2.72;;;36.90;1.00;;;;;;4988848;28;20661;-71
2022/06/24 10:25:50;;;;;;;4.88;2.40;;;37.20;1.00;;;;;;4992425;28;20171;-72
2022/06/24 10:28:16;;;;;;;6.32;2.70;;;37.50;1.00;;;;;;4967341;28;20198;-72
2022/06/24 10:30:56;;;;;;;3.42;2.50;;;36.80;1.00;;;;;;4995284;28;20221;-72
2022/06/24 10:33:23;;;;;;;7.15;2.45;;;35.80;1.00;;;;;;4977794;28;20261;-75
2022/06/24 10:36:01;;;;;;;5.15;2.35;;;36.60;1.00;;;;;;4973592;28;20181;-72
2022/06/24 10:38:39;;;;;;;3.78;2.40;;;37.40;1.00;;;;;;4980557;28;20232;-75
2022/06/24 10:41:07;;;;;;;6.22;2.20;;;36.40;1.00;;;;;;4976924;28;20232;-77
2022/06/24 10:43:41;;;;;;;3.55;2.40;;;35.80;1.00;;;;;;4962082;28;20179;-75
2022/06/24 10:46:12;;;;;;;4.65;2.88;;;35.00;1.00;;;;;;4988208;28;20169;-74
2022/06/24 10:48:44;;;;;;;3.88;2.40;;;33.80;1.00;;;;;;4996102;28;20409;-75
2022/06/24 10:51:36;;;;;;;3.10;2.30;;;33.20;1.00;;;;;;4988929;28;20194;-74
2022/06/24 10:54:01;;;;;;;5.07;2.20;;;33.40;1.00;;;;;;4969558;28;20195;-74
2022/06/24 10:56:42;;;;;;;3.63;2.10;;;35.00;1.00;;;;;;4996178;28;20200;-76
2022/06/24 10:59:07;;;;;;;5.90;2.60;;;35.00;1.00;;;;;;4989441;28;20583;-75
2022/06/24 11:01:33;;;;;;;3.53;2.58;;;35.10;1.00;;;;;;4988074;28;20211;-75
2022/06/24 11:04:04;;;;;;;4.80;2.60;;;33.40;1.00;;;;;;4997190;28;20182;-77
2022/06/24 11:06:30;;;;;;;6.07;2.70;;;34.30;1.00;;;;;;4977714;28;20587;-74
2022/06/24 11:09:07;;;;;;;4.90;2.40;;;35.50;1.00;;;;;;4974700;28;20200;-75
2022/06/24 11:11:34;;;;;;;4.93;2.30;;;35.10;1.00;;;;;;5001881;28;20201;-75
2022/06/24 11:14:00;;;;;;;5.28;2.17;;;36.20;1.00;;;;;;4989197;28;20213;-76
2022/06/24 11:16:28;;;;;;;3.13;2.40;;;36.10;1.00;;;;;;4971441;28;20178;-76
2022/06/24 11:18:56;;;;;;;4.18;2.47;;;34.70;1.00;;;;;;4990041;28;20190;-75
2022/06/24 11:21:22;;;;;;;3.92;2.28;;;35.10;1.00;;;;;;4988316;28;20281;-74
2022/06/24 11:23:52;;;;;;;3.42;2.28;;;35.70;1.00;;;;;;4972074;28;20772;-75
2022/06/24 11:26:19;;;;;;;3.70;2.30;;;36.70;1.00;;;;;;4988731;28;20201;-75
2022/06/24 11:28:55;;;;;;;3.45;2.17;;;36.70;1.00;;;;;;4980894;28;20589;-75
2022/06/24 11:31:28;;;;;;;3.05;2.10;;;37.60;1.00;;;;;;4973452;28;20233;-75
2022/06/24 11:34:09;;;;;;;4.40;2.17;;;37.80;1.00;;;;;;4990438;28;20167;-74
2022/06/24 11:36:37;;;;;;;6.03;2.67;;;36.40;1.00;;;;;;4989601;28;20175;-75
2022/06/24 11:39:03;;;;;;;4.13;2.40;;;35.20;1.00;;;;;;4979858;28;20171;-76
2022/06/24 11:41:34;;;;;;;5.47;2.80;;;33.80;1.00;;;;;;4997727;28;20209;-75
2022/06/24 11:44:00;;;;;;;5.25;2.80;;;32.60;1.00;;;;;;4971517;28;20171;-74
2022/06/24 11:46:25;;;;;;;6.70;3.03;;;32.40;1.00;;;;;;4988648;28;20167;-76
2022/06/24 11:49:07;;;;;;;6.38;2.55;;;32.40;1.00;;;;;;4989162;28;20205;-74
2022/06/24 11:51:33;;;;;;;5.13;2.70;;;32.20;1.00;;;;;;4970459;28;20209;-74
2022/06/24 11:54:03;;;;;;;4.50;2.63;;;32.40;1.00;;;;;;4988964;28;20581;-75
2022/06/24 11:56:34;;;;;;;4.32;3.17;;;32.50;1.00;;;;;;4991571;28;20183;-74
2022/06/24 11:59:04;;;;;;;6.40;2.80;;;32.00;1.00;;;;;;4992582;28;20657;-76
2022/06/24 12:01:31;;;;;;;5.38;2.78;;;31.40;1.00;;;;;;4991468;28;20207;-75
2022/06/24 12:04:00;;;;;;;54.83;8.95;;;31.20;1.00;;;;;;4992556;28;20162;-74
2022/06/24 12:06:27;;;;;;;5.55;2.65;;;31.30;1.00;;;;;;4997797;28;20177;-75
2022/06/24 12:08:53;;;;;;;7.20;3.17;;;31.30;1.00;;;;;;5001714;28;20166;-75
2022/06/24 12:11:22;;;;;;;6.03;2.80;;;32.00;1.00;;;;;;5005342;28;20592;-75
2022/06/24 12:14:04;;;;;;;4.57;3.03;;;32.60;1.00;;;;;;5007895;28;20558;-75
2022/06/24 12:17:02;;;;;;;4.43;3.03;;;33.30;1.00;;;;;;4974946;28;20202;-76
2022/06/24 12:19:29;;;;;;;4.90;2.60;;;37.60;1.00;;;;;;4995461;28;20174;-75
2022/06/24 12:22:08;;;;;;;71.05;9.43;;;38.00;1.00;;;;;;4974368;28;20201;-75
2022/06/24 12:24:35;;;;;;;12.65;3.22;;;38.80;1.00;;;;;;4993156;28;20641;-75
2022/06/24 12:27:03;;;;;;;4.07;2.30;;;38.70;1.00;;;;;;4990395;28;20664;-76
2022/06/24 12:29:32;;;;;;;4.28;2.50;;;37.40;1.00;;;;;;4992628;28;20186;-76
2022/06/24 12:31:59;;;;;;;4.50;2.40;;;37.20;1.00;;;;;;4992033;28;20227;-75
2022/06/24 12:34:26;;;;;;;3.95;2.50;;;35.60;1.00;;;;;;4992728;28;20198;-75
2022/06/24 12:37:00;;;;;;;4.35;2.60;;;34.40;1.00;;;;;;4992529;28;20208;-75
2022/06/24 12:39:28;;;;;;;3.58;2.67;;;34.20;1.00;;;;;;4978367;28;20174;-75
2022/06/24 12:41:54;;;;;;;3.65;2.40;;;34.10;1.00;;;;;;5001345;28;20632;-76
2022/06/24 12:44:19;;;;;;;11.85;2.83;;;34.50;1.00;;;;;;4995668;28;20226;-75
2022/06/24 12:52:33;;;;;;;4.22;2.53;;;34.10;1.00;;;;;;5006285;28;20184;-75
2022/06/24 12:54:59;;;;;;;3.10;2.10;;;;;;;;;;5012340;28;20165;-74
2022/06/24 12:57:25;;;;;;;3.85;2.42;;;37.50;1.00;;;;;;4999199;28;20662;-75
2022/06/24 12:59:51;;;;;;;3.35;2.25;;;;;;;;;;4993704;28;20209;-75
2022/06/24 13:02:16;;;;;;;5.70;2.40;;;38.70;1.00;;;;;;4991998;28;20213;-74
2022/06/24 13:04:42;;;;;;;3.45;2.50;;;38.10;1.00;;;;;;4975661;28;20243;-75
2022/06/24 13:07:07;;;;;;;6.32;2.35;;;37.10;1.00;;;;;;4991860;28;20245;-74
2022/06/24 13:09:33;;;;;;;4.55;2.67;;;35.40;1.00;;;;;;5000250;28;20308;-75
2022/06/24 13:11:59;;;;;;;3.03;2.20;;;34.50;1.00;;;;;;4990537;28;20182;-75
2022/06/24 13:14:24;;;;;;;5.00;2.60;;;33.40;1.00;;;;;;5001304;28;20609;-74
2022/06/24 13:16:50;;;;;;;4.57;2.75;;;32.70;1.00;;;;;;5002321;28;20213;-75
2022/06/24 13:19:15;;;;;;;4.15;2.80;;;31.70;1.00;;;;;;4990637;28;20581;-79
2022/06/24 13:21:41;;;;;;;4.60;2.83;;;31.60;1.00;;;;;;4989448;28;20190;-74
2022/06/24 13:24:07;;;;;;;7.15;2.65;;;31.50;1.00;;;;;;4974694;28;20163;-76
2022/06/24 13:26:32;;;;;;;6.78;3.08;;;31.30;1.00;;;;;;4972286;28;20371;-75
2022/06/24 13:28:58;;;;;;;4.15;2.90;;;31.50;1.00;;;;;;5002152;28;20197;-74
2022/06/24 13:31:24;;;;;;;3.67;2.92;;;32.90;1.00;;;;;;5010607;28;20775;-74
2022/06/24 13:33:49;;;;;;;3.75;2.70;;;34.90;1.00;;;;;;4991253;28;20182;-76
2022/06/24 13:36:15;;;;;;;3.58;2.70;;;35.90;1.00;;;;;;4994008;28;20684;-75
2022/06/24 13:38:40;;;;;;;3.40;2.50;;;36.70;1.00;;;;;;4993229;28;20214;-75